sensor_id;sensor_type;location;lat;lon;timestamp;temperature;humidity
69387;SHT31;56575;48.942;8.404;2023-06-04T00:01:03;17.58;61.30
69387;SHT31;56575;48.942;8.404;2023-06-04T00:03:29;17.53;60.72
69387;SHT31;56575;48.942;8.404;2023-06-04T00:05:55;17.46;60.54
69387;SHT31;56575;48.942;8.404;2023-06-04T00:08:20;17.43;60.21
69387;SHT31;56575;48.942;8.404;2023-06-04T00:10:46;17.36;60.07
69387;SHT31;56575;48.942;8.404;2023-06-04T00:13:12;17.31;60.65
69387;SHT31;56575;48.942;8.404;2023-06-04T00:15:37;17.30;60.97
69387;SHT31;56575;48.942;8.404;2023-06-04T00:18:03;17.26;60.89
69387;SHT31;56575;48.942;8.404;2023-06-04T00:20:28;17.24;60.96
69387;SHT31;56575;48.942;8.404;2023-06-04T00:22:54;17.22;61.15
69387;SHT31;56575;48.942;8.404;2023-06-04T00:25:19;17.16;61.29
69387;SHT31;56575;48.942;8.404;2023-06-04T00:27:45;17.18;61.64
69387;SHT31;56575;48.942;8.404;2023-06-04T00:30:10;17.16;61.36
69387;SHT31;56575;48.942;8.404;2023-06-04T00:32:36;17.15;61.31
69387;SHT31;56575;48.942;8.404;2023-06-04T00:35:02;17.13;61.09
69387;SHT31;56575;48.942;8.404;2023-06-04T00:37:28;17.08;61.09
69387;SHT31;56575;48.942;8.404;2023-06-04T00:39:54;17.06;61.25
69387;SHT31;56575;48.942;8.404;2023-06-04T00:42:19;17.06;61.66
69387;SHT31;56575;48.942;8.404;2023-06-04T00:44:45;17.03;62.00
69387;SHT31;56575;48.942;8.404;2023-06-04T00:47:18;17.02;61.76
69387;SHT31;56575;48.942;8.404;2023-06-04T00:49:45;17.02;61.77
69387;SHT31;56575;48.942;8.404;2023-06-04T00:52:14;17.01;61.52
69387;SHT31;56575;48.942;8.404;2023-06-04T00:54:39;17.01;61.92
69387;SHT31;56575;48.942;8.404;2023-06-04T00:57:05;17.01;61.77
69387;SHT31;56575;48.942;8.404;2023-06-04T00:59:33;16.99;62.28
69387;SHT31;56575;48.942;8.404;2023-06-04T01:02:06;16.98;61.87
69387;SHT31;56575;48.942;8.404;2023-06-04T01:05:17;16.91;61.95
69387;SHT31;56575;48.942;8.404;2023-06-04T01:07:44;16.81;62.35
69387;SHT31;56575;48.942;8.404;2023-06-04T01:10:12;16.71;62.88
69387;SHT31;56575;48.942;8.404;2023-06-04T01:12:42;16.60;63.07
69387;SHT31;56575;48.942;8.404;2023-06-04T01:15:08;16.54;63.06
69387;SHT31;56575;48.942;8.404;2023-06-04T01:17:37;16.46;62.72
69387;SHT31;56575;48.942;8.404;2023-06-04T01:25:32;16.30;63.27
69387;SHT31;56575;48.942;8.404;2023-06-04T01:27:58;16.31;63.54
69387;SHT31;56575;48.942;8.404;2023-06-04T01:30:28;16.27;63.47
69387;SHT31;56575;48.942;8.404;2023-06-04T01:32:55;16.33;62.21
69387;SHT31;56575;48.942;8.404;2023-06-04T01:35:21;16.29;60.27
69387;SHT31;56575;48.942;8.404;2023-06-04T01:37:47;16.29;60.05
69387;SHT31;56575;48.942;8.404;2023-06-04T01:40:13;16.27;59.90
69387;SHT31;56575;48.942;8.404;2023-06-04T01:42:40;16.26;60.11
69387;SHT31;56575;48.942;8.404;2023-06-04T01:45:05;16.24;60.65
69387;SHT31;56575;48.942;8.404;2023-06-04T01:47:31;16.26;60.18
69387;SHT31;56575;48.942;8.404;2023-06-04T01:49:57;16.24;59.74
69387;SHT31;56575;48.942;8.404;2023-06-04T01:52:23;16.16;59.83
69387;SHT31;56575;48.942;8.404;2023-06-04T01:54:49;16.14;59.84
69387;SHT31;56575;48.942;8.404;2023-06-04T01:57:21;16.10;60.10
69387;SHT31;56575;48.942;8.404;2023-06-04T01:59:46;16.10;60.32
69387;SHT31;56575;48.942;8.404;2023-06-04T02:02:12;16.13;59.90
69387;SHT31;56575;48.942;8.404;2023-06-04T02:04:37;16.12;59.82
69387;SHT31;56575;48.942;8.404;2023-06-04T02:07:08;16.06;60.81
69387;SHT31;56575;48.942;8.404;2023-06-04T02:09:34;16.09;60.14
69387;SHT31;56575;48.942;8.404;2023-06-04T02:12:00;16.08;60.50
69387;SHT31;56575;48.942;8.404;2023-06-04T02:14:25;16.03;60.45
69387;SHT31;56575;48.942;8.404;2023-06-04T02:16:50;16.02;60.09
69387;SHT31;56575;48.942;8.404;2023-06-04T02:19:16;15.93;60.03
69387;SHT31;56575;48.942;8.404;2023-06-04T02:21:44;15.85;59.43
69387;SHT31;56575;48.942;8.404;2023-06-04T02:24:09;15.79;59.48
69387;SHT31;56575;48.942;8.404;2023-06-04T02:26:35;15.77;58.91
69387;SHT31;56575;48.942;8.404;2023-06-04T02:29:00;15.74;58.51
69387;SHT31;56575;48.942;8.404;2023-06-04T02:31:27;15.71;58.18
69387;SHT31;56575;48.942;8.404;2023-06-04T02:33:52;15.74;58.41
69387;SHT31;56575;48.942;8.404;2023-06-04T02:36:17;15.68;60.59
69387;SHT31;56575;48.942;8.404;2023-06-04T02:38:43;15.71;61.53
69387;SHT31;56575;48.942;8.404;2023-06-04T02:41:08;15.59;62.08
69387;SHT31;56575;48.942;8.404;2023-06-04T02:43:34;15.50;61.14
69387;SHT31;56575;48.942;8.404;2023-06-04T02:45:59;15.51;60.90
69387;SHT31;56575;48.942;8.404;2023-06-04T02:48:25;15.50;61.20
69387;SHT31;56575;48.942;8.404;2023-06-04T02:50:50;15.50;59.35
69387;SHT31;56575;48.942;8.404;2023-06-04T02:53:16;15.48;58.96
69387;SHT31;56575;48.942;8.404;2023-06-04T02:55:41;15.43;58.10
69387;SHT31;56575;48.942;8.404;2023-06-04T02:58:07;15.43;58.68
69387;SHT31;56575;48.942;8.404;2023-06-04T03:00:34;15.47;58.29
69387;SHT31;56575;48.942;8.404;2023-06-04T03:03:00;15.46;58.30
69387;SHT31;56575;48.942;8.404;2023-06-04T03:05:28;15.43;58.56
69387;SHT31;56575;48.942;8.404;2023-06-04T03:07:56;15.44;58.37
69387;SHT31;56575;48.942;8.404;2023-06-04T03:10:23;15.44;59.22
69387;SHT31;56575;48.942;8.404;2023-06-04T03:12:49;15.47;59.64
69387;SHT31;56575;48.942;8.404;2023-06-04T03:15:14;15.48;59.44
69387;SHT31;56575;48.942;8.404;2023-06-04T03:17:40;15.50;58.61
69387;SHT31;56575;48.942;8.404;2023-06-04T03:20:06;15.46;58.62
69387;SHT31;56575;48.942;8.404;2023-06-04T03:22:33;15.43;58.01
69387;SHT31;56575;48.942;8.404;2023-06-04T03:25:01;15.41;57.07
69387;SHT31;56575;48.942;8.404;2023-06-04T03:27:26;15.44;58.61
69387;SHT31;56575;48.942;8.404;2023-06-04T03:29:51;15.47;59.22
69387;SHT31;56575;48.942;8.404;2023-06-04T03:32:17;15.46;58.93
69387;SHT31;56575;48.942;8.404;2023-06-04T03:34:43;15.41;58.25
69387;SHT31;56575;48.942;8.404;2023-06-04T03:37:09;15.41;58.53
69387;SHT31;56575;48.942;8.404;2023-06-04T03:39:34;15.41;58.21
69387;SHT31;56575;48.942;8.404;2023-06-04T03:42:00;15.31;57.70
69387;SHT31;56575;48.942;8.404;2023-06-04T03:44:25;15.24;57.48
69387;SHT31;56575;48.942;8.404;2023-06-04T03:46:51;15.20;58.01
69387;SHT31;56575;48.942;8.404;2023-06-04T03:49:16;15.20;57.53
69387;SHT31;56575;48.942;8.404;2023-06-04T03:51:42;15.20;57.64
69387;SHT31;56575;48.942;8.404;2023-06-04T03:54:08;15.19;57.64
69387;SHT31;56575;48.942;8.404;2023-06-04T03:56:33;15.22;58.07
69387;SHT31;56575;48.942;8.404;2023-06-04T03:58:59;15.20;58.45
69387;SHT31;56575;48.942;8.404;2023-06-04T04:01:25;15.29;58.34
69387;SHT31;56575;48.942;8.404;2023-06-04T04:03:52;15.24;58.09
69387;SHT31;56575;48.942;8.404;2023-06-04T04:06:18;15.30;57.54
69387;SHT31;56575;48.942;8.404;2023-06-04T04:08:44;15.29;57.37
69387;SHT31;56575;48.942;8.404;2023-06-04T04:11:18;15.31;57.58
69387;SHT31;56575;48.942;8.404;2023-06-04T04:13:45;15.24;57.01
69387;SHT31;56575;48.942;8.404;2023-06-04T04:16:11;15.26;56.62
69387;SHT31;56575;48.942;8.404;2023-06-04T04:18:37;15.27;56.78
69387;SHT31;56575;48.942;8.404;2023-06-04T04:21:03;15.31;56.78
69387;SHT31;56575;48.942;8.404;2023-06-04T04:23:29;15.36;58.37
69387;SHT31;56575;48.942;8.404;2023-06-04T04:25:55;15.39;57.47
69387;SHT31;56575;48.942;8.404;2023-06-04T04:28:24;15.39;57.14
69387;SHT31;56575;48.942;8.404;2023-06-04T04:30:53;15.41;57.74
69387;SHT31;56575;48.942;8.404;2023-06-04T04:33:19;15.39;56.83
69387;SHT31;56575;48.942;8.404;2023-06-04T04:35:44;15.37;56.11
69387;SHT31;56575;48.942;8.404;2023-06-04T04:38:10;15.34;56.64
69387;SHT31;56575;48.942;8.404;2023-06-04T04:40:36;15.37;56.41
69387;SHT31;56575;48.942;8.404;2023-06-04T04:43:02;15.39;56.50
69387;SHT31;56575;48.942;8.404;2023-06-04T04:45:27;15.36;56.64
69387;SHT31;56575;48.942;8.404;2023-06-04T04:47:52;15.39;56.83
69387;SHT31;56575;48.942;8.404;2023-06-04T04:50:18;15.37;56.71
69387;SHT31;56575;48.942;8.404;2023-06-04T04:52:43;15.36;56.71
69387;SHT31;56575;48.942;8.404;2023-06-04T04:55:09;15.30;56.75
69387;SHT31;56575;48.942;8.404;2023-06-04T04:57:34;15.34;56.97
69387;SHT31;56575;48.942;8.404;2023-06-04T05:00:01;15.33;57.26
69387;SHT31;56575;48.942;8.404;2023-06-04T05:02:26;15.34;57.91
69387;SHT31;56575;48.942;8.404;2023-06-04T05:04:51;15.39;57.58
69387;SHT31;56575;48.942;8.404;2023-06-04T05:07:17;15.39;57.38
69387;SHT31;56575;48.942;8.404;2023-06-04T05:09:46;15.46;56.80
69387;SHT31;56575;48.942;8.404;2023-06-04T05:12:12;15.44;56.61
69387;SHT31;56575;48.942;8.404;2023-06-04T05:14:37;15.50;56.55
69387;SHT31;56575;48.942;8.404;2023-06-04T05:17:02;15.53;56.83
69387;SHT31;56575;48.942;8.404;2023-06-04T05:19:28;15.57;57.20
69387;SHT31;56575;48.942;8.404;2023-06-04T05:21:54;15.62;57.41
69387;SHT31;56575;48.942;8.404;2023-06-04T05:24:19;15.62;57.56
69387;SHT31;56575;48.942;8.404;2023-06-04T05:26:45;15.68;56.79
69387;SHT31;56575;48.942;8.404;2023-06-04T05:29:13;15.72;56.68
69387;SHT31;56575;48.942;8.404;2023-06-04T05:31:38;15.78;56.79
69387;SHT31;56575;48.942;8.404;2023-06-04T05:34:04;15.78;57.12
69387;SHT31;56575;48.942;8.404;2023-06-04T05:36:30;15.84;57.09
69387;SHT31;56575;48.942;8.404;2023-06-04T05:38:56;15.89;56.86
69387;SHT31;56575;48.942;8.404;2023-06-04T05:41:29;15.98;57.53
69387;SHT31;56575;48.942;8.404;2023-06-04T05:43:54;15.98;56.76
69387;SHT31;56575;48.942;8.404;2023-06-04T05:46:20;16.03;57.12
69387;SHT31;56575;48.942;8.404;2023-06-04T05:48:46;16.06;57.25
69387;SHT31;56575;48.942;8.404;2023-06-04T05:51:13;16.14;57.35
69387;SHT31;56575;48.942;8.404;2023-06-04T05:53:38;16.20;57.76
69387;SHT31;56575;48.942;8.404;2023-06-04T05:56:04;16.27;57.38
69387;SHT31;56575;48.942;8.404;2023-06-04T05:58:29;16.34;57.10
69387;SHT31;56575;48.942;8.404;2023-06-04T06:00:55;16.41;56.36
69387;SHT31;56575;48.942;8.404;2023-06-04T06:03:21;16.47;56.99
69387;SHT31;56575;48.942;8.404;2023-06-04T06:05:46;16.58;56.92
69387;SHT31;56575;48.942;8.404;2023-06-04T06:08:13;16.63;56.24
69387;SHT31;56575;48.942;8.404;2023-06-04T06:10:38;16.71;56.63
69387;SHT31;56575;48.942;8.404;2023-06-04T06:13:04;16.78;55.51
69387;SHT31;56575;48.942;8.404;2023-06-04T06:15:29;16.84;56.17
69387;SHT31;56575;48.942;8.404;2023-06-04T06:17:55;16.89;56.24
69387;SHT31;56575;48.942;8.404;2023-06-04T06:20:20;17.01;55.36
69387;SHT31;56575;48.942;8.404;2023-06-04T06:22:47;17.03;55.19
69387;SHT31;56575;48.942;8.404;2023-06-04T06:25:13;17.10;54.84
69387;SHT31;56575;48.942;8.404;2023-06-04T06:27:39;17.13;54.64
69387;SHT31;56575;48.942;8.404;2023-06-04T06:30:08;17.15;55.51
69387;SHT31;56575;48.942;8.404;2023-06-04T06:32:34;17.24;54.51
69387;SHT31;56575;48.942;8.404;2023-06-04T06:35:00;17.27;54.47
69387;SHT31;56575;48.942;8.404;2023-06-04T06:37:26;17.37;54.05
69387;SHT31;56575;48.942;8.404;2023-06-04T06:39:51;17.43;53.73
69387;SHT31;56575;48.942;8.404;2023-06-04T06:42:16;17.50;53.59
69387;SHT31;56575;48.942;8.404;2023-06-04T06:44:44;17.60;53.35
69387;SHT31;56575;48.942;8.404;2023-06-04T06:47:09;17.74;56.49
69387;SHT31;56575;48.942;8.404;2023-06-04T06:49:38;17.95;56.28
69387;SHT31;56575;48.942;8.404;2023-06-04T06:52:04;18.08;54.84
69387;SHT31;56575;48.942;8.404;2023-06-04T06:54:30;18.22;54.47
69387;SHT31;56575;48.942;8.404;2023-06-04T06:56:55;18.23;52.87
69387;SHT31;56575;48.942;8.404;2023-06-04T06:59:20;18.32;52.31
69387;SHT31;56575;48.942;8.404;2023-06-04T07:01:46;18.37;52.16
69387;SHT31;56575;48.942;8.404;2023-06-04T07:04:12;18.46;52.22
69387;SHT31;56575;48.942;8.404;2023-06-04T07:06:38;18.50;52.07
69387;SHT31;56575;48.942;8.404;2023-06-04T07:09:03;18.58;51.73
69387;SHT31;56575;48.942;8.404;2023-06-04T07:11:30;18.60;51.43
69387;SHT31;56575;48.942;8.404;2023-06-04T07:13:56;18.68;52.42
69387;SHT31;56575;48.942;8.404;2023-06-04T07:16:21;18.75;51.84
69387;SHT31;56575;48.942;8.404;2023-06-04T07:18:50;18.79;51.53
69387;SHT31;56575;48.942;8.404;2023-06-04T07:21:16;18.84;50.73
69387;SHT31;56575;48.942;8.404;2023-06-04T07:23:41;18.88;51.43
69387;SHT31;56575;48.942;8.404;2023-06-04T07:26:07;18.94;51.51
69387;SHT31;56575;48.942;8.404;2023-06-04T07:28:32;19.03;51.74
69387;SHT31;56575;48.942;8.404;2023-06-04T07:30:58;19.15;50.65
69387;SHT31;56575;48.942;8.404;2023-06-04T07:33:24;19.24;51.02
69387;SHT31;56575;48.942;8.404;2023-06-04T07:35:49;19.33;51.41
69387;SHT31;56575;48.942;8.404;2023-06-04T07:38:15;19.43;49.99
69387;SHT31;56575;48.942;8.404;2023-06-04T07:40:41;19.47;49.64
69387;SHT31;56575;48.942;8.404;2023-06-04T07:43:06;19.60;50.73
69387;SHT31;56575;48.942;8.404;2023-06-04T07:45:31;19.60;49.42
69387;SHT31;56575;48.942;8.404;2023-06-04T07:47:57;19.64;48.92
69387;SHT31;56575;48.942;8.404;2023-06-04T07:50:22;19.73;48.97
69387;SHT31;56575;48.942;8.404;2023-06-04T07:52:48;19.79;48.81
69387;SHT31;56575;48.942;8.404;2023-06-04T07:55:13;19.93;49.29
69387;SHT31;56575;48.942;8.404;2023-06-04T07:57:39;20.05;49.13
69387;SHT31;56575;48.942;8.404;2023-06-04T08:00:06;20.19;50.22
69387;SHT31;56575;48.942;8.404;2023-06-04T08:02:32;20.28;49.43
69387;SHT31;56575;48.942;8.404;2023-06-04T08:04:58;20.36;49.38
69387;SHT31;56575;48.942;8.404;2023-06-04T08:07:23;20.47;48.93
69387;SHT31;56575;48.942;8.404;2023-06-04T08:09:49;20.50;48.42
69387;SHT31;56575;48.942;8.404;2023-06-04T08:12:15;20.53;48.36
69387;SHT31;56575;48.942;8.404;2023-06-04T08:14:41;20.63;48.23
69387;SHT31;56575;48.942;8.404;2023-06-04T08:17:07;20.80;47.92
69387;SHT31;56575;48.942;8.404;2023-06-04T08:19:32;20.77;48.26
69387;SHT31;56575;48.942;8.404;2023-06-04T08:21:57;20.82;47.95
69387;SHT31;56575;48.942;8.404;2023-06-04T08:24:23;21.01;46.99
69387;SHT31;56575;48.942;8.404;2023-06-04T08:26:48;21.36;47.18
69387;SHT31;56575;48.942;8.404;2023-06-04T08:29:15;21.68;46.35
69387;SHT31;56575;48.942;8.404;2023-06-04T08:31:41;21.92;46.49
69387;SHT31;56575;48.942;8.404;2023-06-04T08:34:06;22.18;45.50
69387;SHT31;56575;48.942;8.404;2023-06-04T08:36:31;22.40;45.32
69387;SHT31;56575;48.942;8.404;2023-06-04T08:38:58;22.64;44.22
69387;SHT31;56575;48.942;8.404;2023-06-04T08:41:34;22.94;44.14
69387;SHT31;56575;48.942;8.404;2023-06-04T08:44:00;23.12;43.20
69387;SHT31;56575;48.942;8.404;2023-06-04T08:46:28;23.49;42.93
69387;SHT31;56575;48.942;8.404;2023-06-04T08:49:00;23.71;43.38
69387;SHT31;56575;48.942;8.404;2023-06-04T08:51:27;23.81;41.77
69387;SHT31;56575;48.942;8.404;2023-06-04T08:53:52;24.09;41.54
69387;SHT31;56575;48.942;8.404;2023-06-04T08:56:20;24.35;41.46
69387;SHT31;56575;48.942;8.404;2023-06-04T08:58:47;24.25;40.60
69387;SHT31;56575;48.942;8.404;2023-06-04T09:01:13;24.49;40.09
69387;SHT31;56575;48.942;8.404;2023-06-04T09:03:39;24.79;39.25
69387;SHT31;56575;48.942;8.404;2023-06-04T09:06:06;24.94;39.87
69387;SHT31;56575;48.942;8.404;2023-06-04T09:08:34;25.25;40.05
69387;SHT31;56575;48.942;8.404;2023-06-04T09:11:05;25.28;39.58
69387;SHT31;56575;48.942;8.404;2023-06-04T09:13:31;25.54;39.09
69387;SHT31;56575;48.942;8.404;2023-06-04T09:16:01;25.79;38.87
69387;SHT31;56575;48.942;8.404;2023-06-04T09:18:27;26.08;38.09
69387;SHT31;56575;48.942;8.404;2023-06-04T09:21:07;26.29;37.67
69387;SHT31;56575;48.942;8.404;2023-06-04T09:23:46;26.72;37.64
69387;SHT31;56575;48.942;8.404;2023-06-04T09:26:12;26.87;37.30
69387;SHT31;56575;48.942;8.404;2023-06-04T09:28:42;26.98;36.56
69387;SHT31;56575;48.942;8.404;2023-06-04T09:31:17;27.23;36.47
69387;SHT31;56575;48.942;8.404;2023-06-04T09:33:46;27.39;35.98
69387;SHT31;56575;48.942;8.404;2023-06-04T09:36:12;27.65;35.28
69387;SHT31;56575;48.942;8.404;2023-06-04T09:38:38;27.72;35.07
69387;SHT31;56575;48.942;8.404;2023-06-04T09:41:10;28.00;34.41
69387;SHT31;56575;48.942;8.404;2023-06-04T09:43:36;28.20;33.59
69387;SHT31;56575;48.942;8.404;2023-06-04T09:46:12;28.24;35.65
69387;SHT31;56575;48.942;8.404;2023-06-04T09:48:38;28.22;34.63
69387;SHT31;56575;48.942;8.404;2023-06-04T09:53:33;28.22;34.17
69387;SHT31;56575;48.942;8.404;2023-06-04T09:56:01;28.32;34.33
69387;SHT31;56575;48.942;8.404;2023-06-04T09:58:27;28.24;34.52
69387;SHT31;56575;48.942;8.404;2023-06-04T10:00:55;28.22;34.65
69387;SHT31;56575;48.942;8.404;2023-06-04T10:03:23;28.01;34.40
69387;SHT31;56575;48.942;8.404;2023-06-04T10:05:52;27.97;34.52
69387;SHT31;56575;48.942;8.404;2023-06-04T10:08:18;28.13;34.52
69387;SHT31;56575;48.942;8.404;2023-06-04T10:10:46;28.32;34.18
69387;SHT31;56575;48.942;8.404;2023-06-04T10:13:19;28.49;34.23
69387;SHT31;56575;48.942;8.404;2023-06-04T10:15:46;28.61;33.66
69387;SHT31;56575;48.942;8.404;2023-06-04T10:18:13;28.70;33.45
69387;SHT31;56575;48.942;8.404;2023-06-04T10:20:39;28.89;33.62
69387;SHT31;56575;48.942;8.404;2023-06-04T10:23:06;29.06;33.00
69387;SHT31;56575;48.942;8.404;2023-06-04T10:25:36;29.42;32.87
69387;SHT31;56575;48.942;8.404;2023-06-04T10:28:03;29.32;31.62
69387;SHT31;56575;48.942;8.404;2023-06-04T10:30:32;29.65;31.70
69387;SHT31;56575;48.942;8.404;2023-06-04T10:32:58;29.96;31.34
69387;SHT31;56575;48.942;8.404;2023-06-04T10:35:34;30.18;31.15
69387;SHT31;56575;48.942;8.404;2023-06-04T10:38:09;30.51;30.08
69387;SHT31;56575;48.942;8.404;2023-06-04T10:40:36;30.87;31.03
69387;SHT31;56575;48.942;8.404;2023-06-04T10:43:06;31.03;32.49
69387;SHT31;56575;48.942;8.404;2023-06-04T10:45:31;30.83;38.56
69387;SHT31;56575;48.942;8.404;2023-06-04T10:48:01;30.71;32.37
69387;SHT31;56575;48.942;8.404;2023-06-04T10:50:26;30.86;31.85
69387;SHT31;56575;48.942;8.404;2023-06-04T10:52:53;31.10;31.56
69387;SHT31;56575;48.942;8.404;2023-06-04T10:55:18;31.10;29.84
69387;SHT31;56575;48.942;8.404;2023-06-04T10:57:56;31.52;30.50
69387;SHT31;56575;48.942;8.404;2023-06-04T11:00:33;31.59;31.17
69387;SHT31;56575;48.942;8.404;2023-06-04T11:02:59;31.71;31.37
69387;SHT31;56575;48.942;8.404;2023-06-04T11:05:37;32.09;29.35
69387;SHT31;56575;48.942;8.404;2023-06-04T11:08:04;32.43;29.52
69387;SHT31;56575;48.942;8.404;2023-06-04T11:10:33;32.60;28.46
69387;SHT31;56575;48.942;8.404;2023-06-04T11:12:59;32.44;29.02
69387;SHT31;56575;48.942;8.404;2023-06-04T11:15:24;32.72;28.87
69387;SHT31;56575;48.942;8.404;2023-06-04T11:17:55;32.53;28.43
69387;SHT31;56575;48.942;8.404;2023-06-04T11:20:21;32.64;27.63
69387;SHT31;56575;48.942;8.404;2023-06-04T11:22:58;32.65;27.68
69387;SHT31;56575;48.942;8.404;2023-06-04T11:25:25;32.75;27.80
69387;SHT31;56575;48.942;8.404;2023-06-04T11:27:54;32.84;29.04
69387;SHT31;56575;48.942;8.404;2023-06-04T11:30:21;33.29;27.15
69387;SHT31;56575;48.942;8.404;2023-06-04T11:32:47;33.45;26.66
69387;SHT31;56575;48.942;8.404;2023-06-04T11:35:12;33.81;25.52
69387;SHT31;56575;48.942;8.404;2023-06-04T11:37:38;33.19;27.46
69387;SHT31;56575;48.942;8.404;2023-06-04T11:40:24;33.33;27.54
69387;SHT31;56575;48.942;8.404;2023-06-04T11:42:52;33.20;28.44
69387;SHT31;56575;48.942;8.404;2023-06-04T11:45:20;33.49;30.89
69387;SHT31;56575;48.942;8.404;2023-06-04T11:47:53;33.40;27.14
69387;SHT31;56575;48.942;8.404;2023-06-04T11:50:19;33.50;28.40
69387;SHT31;56575;48.942;8.404;2023-06-04T11:52:45;33.67;27.69
69387;SHT31;56575;48.942;8.404;2023-06-04T11:55:12;34.01;29.24
69387;SHT31;56575;48.942;8.404;2023-06-04T11:57:39;33.77;28.17
69387;SHT31;56575;48.942;8.404;2023-06-04T12:00:06;33.85;26.99
69387;SHT31;56575;48.942;8.404;2023-06-04T12:02:38;34.16;27.12
69387;SHT31;56575;48.942;8.404;2023-06-04T12:05:16;34.36;27.07
69387;SHT31;56575;48.942;8.404;2023-06-04T12:07:49;34.49;26.24
69387;SHT31;56575;48.942;8.404;2023-06-04T12:10:17;33.87;26.16
69387;SHT31;56575;48.942;8.404;2023-06-04T12:12:43;33.90;25.96
69387;SHT31;56575;48.942;8.404;2023-06-04T12:15:09;34.16;26.29
69387;SHT31;56575;48.942;8.404;2023-06-04T12:17:48;33.64;24.41
69387;SHT31;56575;48.942;8.404;2023-06-04T12:20:14;33.94;26.39
69387;SHT31;56575;48.942;8.404;2023-06-04T12:22:46;34.25;24.81
69387;SHT31;56575;48.942;8.404;2023-06-04T12:25:12;33.95;25.06
69387;SHT31;56575;48.942;8.404;2023-06-04T12:27:46;34.25;24.94
69387;SHT31;56575;48.942;8.404;2023-06-04T12:30:12;34.25;23.37
69387;SHT31;56575;48.942;8.404;2023-06-04T12:32:37;34.46;23.28
69387;SHT31;56575;48.942;8.404;2023-06-04T12:35:04;34.04;23.06
69387;SHT31;56575;48.942;8.404;2023-06-04T12:37:30;34.20;23.13
69387;SHT31;56575;48.942;8.404;2023-06-04T12:39:55;34.43;23.92
69387;SHT31;56575;48.942;8.404;2023-06-04T12:42:21;34.37;22.93
69387;SHT31;56575;48.942;8.404;2023-06-04T12:44:46;34.70;23.59
69387;SHT31;56575;48.942;8.404;2023-06-04T12:47:12;34.45;23.10
69387;SHT31;56575;48.942;8.404;2023-06-04T12:49:38;34.16;23.75
69387;SHT31;56575;48.942;8.404;2023-06-04T12:52:04;33.56;23.26
69387;SHT31;56575;48.942;8.404;2023-06-04T12:54:29;33.25;23.86
69387;SHT31;56575;48.942;8.404;2023-06-04T12:56:55;33.34;25.02
69387;SHT31;56575;48.942;8.404;2023-06-04T12:59:22;33.19;24.71
69387;SHT31;56575;48.942;8.404;2023-06-04T13:01:48;33.26;25.46
69387;SHT31;56575;48.942;8.404;2023-06-04T13:04:13;33.33;24.37
69387;SHT31;56575;48.942;8.404;2023-06-04T13:06:38;33.26;22.99
69387;SHT31;56575;48.942;8.404;2023-06-04T13:09:05;33.42;23.17
69387;SHT31;56575;48.942;8.404;2023-06-04T13:11:41;33.50;24.54
69387;SHT31;56575;48.942;8.404;2023-06-04T13:14:07;33.37;24.41
69387;SHT31;56575;48.942;8.404;2023-06-04T13:16:32;33.13;24.03
69387;SHT31;56575;48.942;8.404;2023-06-04T13:18:58;33.10;24.64
69387;SHT31;56575;48.942;8.404;2023-06-04T13:21:23;32.81;24.79
69387;SHT31;56575;48.942;8.404;2023-06-04T13:23:49;32.88;24.54
69387;SHT31;56575;48.942;8.404;2023-06-04T13:26:16;32.76;25.05
69387;SHT31;56575;48.942;8.404;2023-06-04T13:28:41;32.81;25.99
69387;SHT31;56575;48.942;8.404;2023-06-04T13:31:06;32.53;25.74
69387;SHT31;56575;48.942;8.404;2023-06-04T13:33:32;32.37;25.07
69387;SHT31;56575;48.942;8.404;2023-06-04T13:35:59;32.14;25.38
69387;SHT31;56575;48.942;8.404;2023-06-04T13:38:25;32.09;25.81
69387;SHT31;56575;48.942;8.404;2023-06-04T13:40:50;32.30;25.68
69387;SHT31;56575;48.942;8.404;2023-06-04T13:43:15;32.43;24.87
69387;SHT31;56575;48.942;8.404;2023-06-04T13:45:42;32.43;25.67
69387;SHT31;56575;48.942;8.404;2023-06-04T13:48:09;32.31;25.79
69387;SHT31;56575;48.942;8.404;2023-06-04T13:50:35;32.29;27.90
69387;SHT31;56575;48.942;8.404;2023-06-04T13:53:00;32.01;26.37
69387;SHT31;56575;48.942;8.404;2023-06-04T13:55:25;31.84;31.85
69387;SHT31;56575;48.942;8.404;2023-06-04T13:57:51;31.47;27.88
69387;SHT31;56575;48.942;8.404;2023-06-04T14:00:16;31.48;26.54
69387;SHT31;56575;48.942;8.404;2023-06-04T14:02:42;31.41;26.66
69387;SHT31;56575;48.942;8.404;2023-06-04T14:05:07;31.30;26.65
69387;SHT31;56575;48.942;8.404;2023-06-04T14:07:33;31.64;26.81
69387;SHT31;56575;48.942;8.404;2023-06-04T14:09:59;31.78;26.70
69387;SHT31;56575;48.942;8.404;2023-06-04T14:12:25;31.86;26.55
69387;SHT31;56575;48.942;8.404;2023-06-04T14:14:50;31.86;26.24
69387;SHT31;56575;48.942;8.404;2023-06-04T14:17:16;31.82;30.19
69387;SHT31;56575;48.942;8.404;2023-06-04T14:19:42;31.29;30.68
69387;SHT31;56575;48.942;8.404;2023-06-04T14:22:07;31.45;29.38
69387;SHT31;56575;48.942;8.404;2023-06-04T14:24:33;31.20;28.39
69387;SHT31;56575;48.942;8.404;2023-06-04T14:26:58;31.17;28.32
69387;SHT31;56575;48.942;8.404;2023-06-04T14:29:24;31.19;28.09
69387;SHT31;56575;48.942;8.404;2023-06-04T14:31:49;31.04;27.44
69387;SHT31;56575;48.942;8.404;2023-06-04T14:34:15;31.10;27.45
69387;SHT31;56575;48.942;8.404;2023-06-04T14:36:40;30.93;29.18
69387;SHT31;56575;48.942;8.404;2023-06-04T14:39:06;31.07;26.85
69387;SHT31;56575;48.942;8.404;2023-06-04T14:41:31;31.00;27.66
69387;SHT31;56575;48.942;8.404;2023-06-04T14:43:57;31.02;27.13
69387;SHT31;56575;48.942;8.404;2023-06-04T14:46:22;30.86;26.85
69387;SHT31;56575;48.942;8.404;2023-06-04T14:48:49;30.89;25.62
69387;SHT31;56575;48.942;8.404;2023-06-04T14:51:14;30.90;27.33
69387;SHT31;56575;48.942;8.404;2023-06-04T14:53:40;30.80;27.01
69387;SHT31;56575;48.942;8.404;2023-06-04T14:56:05;30.75;26.52
69387;SHT31;56575;48.942;8.404;2023-06-04T14:58:31;30.74;27.14
69387;SHT31;56575;48.942;8.404;2023-06-04T15:00:56;30.61;27.25
69387;SHT31;56575;48.942;8.404;2023-06-04T15:03:26;30.64;26.83
69387;SHT31;56575;48.942;8.404;2023-06-04T15:05:52;30.64;26.11
69387;SHT31;56575;48.942;8.404;2023-06-04T15:08:17;30.47;30.37
69387;SHT31;56575;48.942;8.404;2023-06-04T15:10:43;30.51;26.67
69387;SHT31;56575;48.942;8.404;2023-06-04T15:13:08;30.58;26.00
69387;SHT31;56575;48.942;8.404;2023-06-04T15:15:33;30.76;25.41
69387;SHT31;56575;48.942;8.404;2023-06-04T15:17:59;30.74;24.88
69387;SHT31;56575;48.942;8.404;2023-06-04T15:20:24;30.61;25.37
69387;SHT31;56575;48.942;8.404;2023-06-04T15:22:52;30.67;26.02
69387;SHT31;56575;48.942;8.404;2023-06-04T15:25:18;30.67;25.10
69387;SHT31;56575;48.942;8.404;2023-06-04T15:27:43;30.48;24.55
69387;SHT31;56575;48.942;8.404;2023-06-04T15:30:09;30.42;24.60
69387;SHT31;56575;48.942;8.404;2023-06-04T15:32:34;30.64;23.97
69387;SHT31;56575;48.942;8.404;2023-06-04T15:35:00;30.61;24.34